createdAt,value
2024-03-08T00:01:17.594Z,81.91
2024-03-08T00:04:02.865Z,81.35
2024-03-08T00:06:49.036Z,81.53
2024-03-08T00:09:34.429Z,81.48
2024-03-08T00:12:19.990Z,81.21
2024-03-08T00:15:05.906Z,80.60
2024-03-08T00:17:51.611Z,80.38
2024-03-08T00:20:37.207Z,80.52
2024-03-08T00:23:22.693Z,80.64
2024-03-08T00:26:08.240Z,80.66
2024-03-08T00:28:54.729Z,81.10
2024-03-08T00:31:39.926Z,81.15
2024-03-08T00:34:26.075Z,81.76
2024-03-08T00:37:11.425Z,81.79
2024-03-08T00:39:56.613Z,81.25
2024-03-08T00:42:42.601Z,80.80
2024-03-08T00:45:27.800Z,81.16
2024-03-08T00:48:13.520Z,80.39
2024-03-08T00:50:58.792Z,80.36
2024-03-08T00:53:44.543Z,80.36
2024-03-08T00:56:29.955Z,80.83
2024-03-08T00:59:15.756Z,81.26
2024-03-08T01:02:01.779Z,81.18
2024-03-08T01:04:48.632Z,81.29
2024-03-08T01:07:34.206Z,80.93
2024-03-08T01:10:19.267Z,81.27
2024-03-08T01:13:05.003Z,80.97
2024-03-08T01:15:50.042Z,81.56
2024-03-08T01:18:36.417Z,81.79
2024-03-08T01:21:21.850Z,81.44
2024-03-08T01:24:07.407Z,81.51
2024-03-08T01:26:52.917Z,81.57
2024-03-08T01:29:38.796Z,81.35
2024-03-08T01:32:24.890Z,81.64
2024-03-08T01:35:10.861Z,81.38
2024-03-08T01:37:56.513Z,81.28
2024-03-08T01:40:42.386Z,81.08
2024-03-08T01:43:32.053Z,81.60
2024-03-08T01:46:23.425Z,81.74
2024-03-08T01:49:09.290Z,82.19
2024-03-08T01:51:57.690Z,81.84
2024-03-08T01:54:43.335Z,81.70
2024-03-08T01:57:30.197Z,81.69
2024-03-08T02:00:16.115Z,81.32
2024-03-08T02:03:02.877Z,81.52
2024-03-08T02:05:48.635Z,81.67
2024-03-08T02:08:35.179Z,81.29
2024-03-08T02:11:22.082Z,81.20
2024-03-08T02:14:07.979Z,81.49
2024-03-08T02:16:53.632Z,81.79
2024-03-08T02:19:38.922Z,82.06
2024-03-08T02:22:24.404Z,82.08
2024-03-08T02:25:10.956Z,81.70
2024-03-08T02:27:56.050Z,81.69
2024-03-08T02:30:41.941Z,81.76
2024-03-08T02:33:30.170Z,81.61
2024-03-08T02:36:15.813Z,81.81
2024-03-08T02:39:02.288Z,81.97
2024-03-08T02:41:47.883Z,82.21
2024-03-08T02:44:34.718Z,81.91
2024-03-08T02:47:20.087Z,81.89
2024-03-08T02:50:05.962Z,81.64
2024-03-08T02:52:51.942Z,81.75
2024-03-08T02:55:37.157Z,81.64
2024-03-08T02:58:22.960Z,81.98
2024-03-08T03:01:08.220Z,82.00
2024-03-08T03:03:53.622Z,82.46
2024-03-08T03:06:38.917Z,82.81
2024-03-08T03:09:28.553Z,82.75
2024-03-08T03:12:13.783Z,82.19
2024-03-08T03:14:59.428Z,82.51
2024-03-08T03:17:52.377Z,82.43
2024-03-08T03:20:44.580Z,82.66
2024-03-08T03:23:34.462Z,82.77
2024-03-08T03:26:20.028Z,82.96
2024-03-08T03:29:07.001Z,82.96
2024-03-08T03:31:52.270Z,82.67
2024-03-08T03:34:37.546Z,82.53
2024-03-08T03:37:22.939Z,82.82
2024-03-08T03:40:09.671Z,82.61
2024-03-08T03:42:55.060Z,83.12
2024-03-08T03:45:42.902Z,83.39
2024-03-08T03:48:28.321Z,83.06
2024-03-08T03:51:15.757Z,82.77
2024-03-08T03:54:01.152Z,82.92
2024-03-08T03:56:47.888Z,82.77
2024-03-08T03:59:32.932Z,82.93
2024-03-08T04:02:18.887Z,83.15
2024-03-08T04:05:05.989Z,82.90
2024-03-08T04:07:51.405Z,82.91
2024-03-08T04:10:36.740Z,82.89
2024-03-08T04:13:22.015Z,82.75
2024-03-08T04:16:09.275Z,82.58
2024-03-08T04:18:55.152Z,82.52
2024-03-08T04:21:40.959Z,82.40
2024-03-08T04:24:26.537Z,82.38
2024-03-08T04:27:11.992Z,82.06
2024-03-08T04:29:58.334Z,82.16
2024-03-08T04:32:44.100Z,82.23
2024-03-08T04:35:29.382Z,82.19
2024-03-08T04:38:14.897Z,82.33
2024-03-08T04:41:00.594Z,81.90
2024-03-08T04:43:45.877Z,81.66
2024-03-08T04:46:31.353Z,81.41
2024-03-08T04:49:16.762Z,81.85
2024-03-08T04:52:05.596Z,81.70
2024-03-08T04:54:50.856Z,81.63
2024-03-08T04:57:36.299Z,81.97
2024-03-08T05:00:22.121Z,81.77
2024-03-08T05:03:07.471Z,81.88
2024-03-08T05:05:53.016Z,81.87
2024-03-08T05:08:38.375Z,82.13
2024-03-08T05:11:23.798Z,82.15
2024-03-08T05:14:09.632Z,81.95
2024-03-08T05:16:54.945Z,81.53
2024-03-08T05:19:40.428Z,81.21
2024-03-08T05:22:27.150Z,81.08
2024-03-08T05:25:13.398Z,81.79
2024-03-08T05:27:59.189Z,81.29
2024-03-08T05:30:44.644Z,81.19
2024-03-08T05:33:30.427Z,81.35
2024-03-08T05:36:17.674Z,81.26
2024-03-08T05:39:03.706Z,81.59
2024-03-08T05:41:49.289Z,81.85
2024-03-08T05:44:35.283Z,81.22
2024-03-08T05:47:20.370Z,81.19
2024-03-08T05:50:06.270Z,81.62
2024-03-08T05:52:51.712Z,81.55
2024-03-08T05:55:37.196Z,81.73
2024-03-08T05:58:22.672Z,81.84
2024-03-08T06:01:09.137Z,81.82
2024-03-08T06:03:56.943Z,81.81
2024-03-08T06:06:42.580Z,81.87
2024-03-08T06:09:28.286Z,82.18
2024-03-08T06:12:13.594Z,81.62
2024-03-08T06:14:59.069Z,81.91
2024-03-08T06:17:44.709Z,82.04
2024-03-08T06:20:30.357Z,82.51
2024-03-08T06:23:19.007Z,82.43
2024-03-08T06:26:04.664Z,82.47
2024-03-08T06:28:50.166Z,82.01
2024-03-08T06:31:35.575Z,81.80
2024-03-08T06:34:20.956Z,82.04
2024-03-08T06:37:06.476Z,81.83
2024-03-08T06:39:56.284Z,81.76
2024-03-08T06:42:42.319Z,81.54
2024-03-08T06:45:27.516Z,81.48
2024-03-08T06:48:13.822Z,81.17
2024-03-08T06:50:59.402Z,82.28
2024-03-08T06:53:45.559Z,82.46
2024-03-08T06:56:31.214Z,82.05
2024-03-08T06:59:19.185Z,82.02
2024-03-08T07:02:05.241Z,82.25
2024-03-08T07:04:51.607Z,81.66
2024-03-08T07:07:38.307Z,81.82
2024-03-08T07:10:26.649Z,81.94
2024-03-08T07:13:12.280Z,82.15
2024-03-08T07:15:57.691Z,81.72
2024-03-08T07:18:44.898Z,81.81
2024-03-08T07:21:30.310Z,82.30
2024-03-08T07:24:18.747Z,82.79
2024-03-08T07:27:07.485Z,82.63
2024-03-08T07:30:08.138Z,82.09
2024-03-08T07:32:54.873Z,82.73
2024-03-08T07:35:41.470Z,82.81
2024-03-08T07:38:26.702Z,82.56
2024-03-08T07:41:13.092Z,83.22
2024-03-08T07:44:01.784Z,83.45
2024-03-08T07:46:47.145Z,82.79
2024-03-08T07:49:32.757Z,83.27
2024-03-08T07:52:19.132Z,83.82
2024-03-08T07:55:07.326Z,82.96
2024-03-08T07:57:52.667Z,82.67
2024-03-08T08:00:38.132Z,83.18
2024-03-08T08:03:23.620Z,83.18
2024-03-08T08:06:09.049Z,82.84
2024-03-08T08:08:54.705Z,82.02
2024-03-08T08:11:40.027Z,82.60
2024-03-08T08:14:25.596Z,82.71
2024-03-08T08:17:11.123Z,82.48
2024-03-08T08:19:57.212Z,81.85
2024-03-08T08:22:44.654Z,82.20
2024-03-08T08:25:30.412Z,81.97
2024-03-08T08:28:15.655Z,82.32
2024-03-08T08:31:01.115Z,82.08
2024-03-08T08:33:48.872Z,82.75
2024-03-08T08:36:35.610Z,82.81
2024-03-08T08:39:23.931Z,83.24
2024-03-08T08:42:12.422Z,83.27
2024-03-08T08:45:03.056Z,82.99
2024-03-08T08:47:54.038Z,82.85
2024-03-08T08:50:40.566Z,83.29
2024-03-08T08:53:25.820Z,83.49
2024-03-08T08:56:14.009Z,83.05
2024-03-08T08:58:59.878Z,82.83
2024-03-08T09:01:48.310Z,82.70
2024-03-08T09:04:33.962Z,82.32
2024-03-08T09:07:20.227Z,82.58
2024-03-08T09:12:54.254Z,81.83
2024-03-08T09:15:41.468Z,81.78
2024-03-08T09:18:27.467Z,81.63
2024-03-08T09:21:14.379Z,81.70
2024-03-08T09:23:59.820Z,82.08
2024-03-08T09:26:44.903Z,82.19
2024-03-08T09:29:30.160Z,81.66
2024-03-08T09:32:15.798Z,82.33
2024-03-08T09:35:02.371Z,81.85
2024-03-08T09:37:52.922Z,81.54
2024-03-08T09:40:38.692Z,82.93
2024-03-08T09:43:25.524Z,82.42
2024-03-08T09:46:12.295Z,82.03
2024-03-08T09:48:58.592Z,81.78
2024-03-08T09:51:44.357Z,81.91
2024-03-08T09:54:30.723Z,81.50
2024-03-08T09:57:17.229Z,81.84
2024-03-08T10:00:09.644Z,81.78
2024-03-08T10:02:55.225Z,81.29
2024-03-08T10:05:40.602Z,81.54
2024-03-08T10:08:25.879Z,81.37
2024-03-08T10:11:12.939Z,81.40
2024-03-08T10:13:58.769Z,81.51
2024-03-08T10:16:44.060Z,80.60
2024-03-08T10:19:33.147Z,81.22
2024-03-08T10:22:18.949Z,80.85
2024-03-08T10:25:06.355Z,80.93
2024-03-08T10:27:52.021Z,79.70
2024-03-08T10:30:38.845Z,80.72
2024-03-08T10:33:23.781Z,81.20
2024-03-08T10:36:13.021Z,80.90
2024-03-08T10:39:00.276Z,81.27
2024-03-08T10:41:50.377Z,80.88
2024-03-08T10:44:44.708Z,80.55
2024-03-08T10:47:32.305Z,81.17
2024-03-08T10:50:26.381Z,81.25
2024-03-08T10:53:12.709Z,80.53
2024-03-08T10:55:58.855Z,80.37
2024-03-08T10:58:45.708Z,80.60
2024-03-08T11:01:31.909Z,81.14
2024-03-08T11:04:20.870Z,81.06
2024-03-08T11:07:07.561Z,81.06
2024-03-08T11:09:52.892Z,80.50
2024-03-08T11:12:38.837Z,80.37
2024-03-08T11:15:25.859Z,80.42
2024-03-08T11:18:11.678Z,80.74
2024-03-08T11:20:58.764Z,80.68
2024-03-08T11:23:44.653Z,79.73
2024-03-08T11:26:32.383Z,79.46
2024-03-08T11:29:30.376Z,79.99
2024-03-08T11:32:19.530Z,80.13
2024-03-08T11:35:10.144Z,79.74
2024-03-08T11:37:56.021Z,79.90
2024-03-08T11:40:41.557Z,80.37
2024-03-08T11:43:26.784Z,80.01
2024-03-08T11:46:16.274Z,79.80
2024-03-08T11:49:01.880Z,80.07
2024-03-08T11:51:47.379Z,79.98
2024-03-08T11:54:33.022Z,80.23
2024-03-08T11:57:23.642Z,80.37
2024-03-08T12:00:22.805Z,80.35
2024-03-08T12:03:08.675Z,80.18
2024-03-08T12:06:00.981Z,79.88
2024-03-08T12:08:50.388Z,79.87
2024-03-08T12:11:37.261Z,79.59
2024-03-08T12:14:23.601Z,79.75
2024-03-08T12:17:12.749Z,79.90
2024-03-08T12:20:13.740Z,79.81
2024-03-08T12:23:00.533Z,80.05
2024-03-08T12:25:46.416Z,80.56
2024-03-08T12:28:31.989Z,80.22
2024-03-08T12:31:18.488Z,79.81
2024-03-08T12:34:04.719Z,79.63
2024-03-08T12:36:53.164Z,80.02
2024-03-08T12:39:38.902Z,79.34
2024-03-08T12:42:24.288Z,79.59
2024-03-08T12:45:11.212Z,79.84
2024-03-08T12:47:57.081Z,80.22
2024-03-08T12:50:46.509Z,80.55
2024-03-08T12:53:31.833Z,80.56
2024-03-08T12:56:29.765Z,80.46
2024-03-08T12:59:15.131Z,80.72
2024-03-08T13:02:01.258Z,80.39
2024-03-08T13:04:46.710Z,79.90
2024-03-08T13:07:32.871Z,79.98
2024-03-08T13:10:18.342Z,80.38
2024-03-08T13:13:04.292Z,80.27
2024-03-08T13:15:50.220Z,80.34
2024-03-08T13:18:36.954Z,80.48
2024-03-08T13:21:25.226Z,80.67
2024-03-08T13:24:11.146Z,80.59
2024-03-08T13:26:56.586Z,80.47
2024-03-08T13:29:42.493Z,80.54
2024-03-08T13:32:28.298Z,80.49
2024-03-08T13:35:16.974Z,80.96
2024-03-08T13:38:06.743Z,80.48
2024-03-08T13:40:53.162Z,80.77
2024-03-08T13:43:39.268Z,80.91
2024-03-08T13:46:25.594Z,80.81
2024-03-08T13:49:12.244Z,80.77
2024-03-08T13:51:59.970Z,80.56
2024-03-08T13:54:45.018Z,80.38
2024-03-08T13:57:30.416Z,80.75
2024-03-08T14:00:16.231Z,80.65
2024-03-08T14:03:01.933Z,80.50
2024-03-08T14:05:48.128Z,80.60
2024-03-08T14:08:34.453Z,80.60
2024-03-08T14:11:20.502Z,80.47
2024-03-08T14:14:06.151Z,80.63
2024-03-08T14:16:56.514Z,80.92
2024-03-08T14:19:41.925Z,80.50
2024-03-08T14:22:27.478Z,81.22
2024-03-08T14:25:19.069Z,80.62
2024-03-08T14:28:08.513Z,81.11
2024-03-08T14:30:54.878Z,81.03
2024-03-08T14:33:40.202Z,81.22
2024-03-08T14:36:29.441Z,81.00
2024-03-08T14:39:15.344Z,79.93
2024-03-08T14:42:01.211Z,80.01
2024-03-08T14:44:49.407Z,80.00
2024-03-08T14:47:35.636Z,79.97
2024-03-08T14:50:23.867Z,79.82
2024-03-08T14:53:09.194Z,79.45
2024-03-08T14:55:54.458Z,79.43
2024-03-08T14:58:39.939Z,79.51
2024-03-08T15:01:29.903Z,79.22
2024-03-08T15:04:16.652Z,79.61
2024-03-08T15:07:03.285Z,79.60
2024-03-08T15:09:48.287Z,79.92
2024-03-08T15:12:33.488Z,80.27
2024-03-08T15:15:19.332Z,79.98
2024-03-08T15:18:05.173Z,80.05
2024-03-08T15:20:50.560Z,79.79
2024-03-08T15:23:38.619Z,79.81
2024-03-08T15:26:23.800Z,79.70
2024-03-08T15:29:09.211Z,79.42
2024-03-08T15:31:55.389Z,79.50
2024-03-08T15:34:43.632Z,79.85
2024-03-08T15:37:30.770Z,79.79
2024-03-08T15:40:24.990Z,80.03
2024-03-08T15:43:10.624Z,79.61
2024-03-08T15:45:56.209Z,80.20
2024-03-08T15:48:43.295Z,80.31
2024-03-08T15:51:28.616Z,80.00
2024-03-08T15:54:14.007Z,80.28
2024-03-08T15:56:59.552Z,80.27
2024-03-08T15:59:45.519Z,80.60
2024-03-08T16:02:30.904Z,80.46
2024-03-08T16:05:17.569Z,80.50
2024-03-08T16:08:03.076Z,80.34
2024-03-08T16:10:51.202Z,80.29
2024-03-08T16:13:39.474Z,79.83
2024-03-08T16:16:24.935Z,79.46
2024-03-08T16:19:09.902Z,79.58
2024-03-08T16:21:55.310Z,79.56
2024-03-08T16:24:43.958Z,79.64
2024-03-08T16:27:29.421Z,79.34
2024-03-08T16:30:17.784Z,79.27
2024-03-08T16:33:03.454Z,79.28
2024-03-08T16:35:50.689Z,79.16
2024-03-08T16:38:38.108Z,79.37
2024-03-08T16:41:23.573Z,79.39
2024-03-08T16:44:10.375Z,79.60
2024-03-08T16:47:01.009Z,79.71
2024-03-08T16:49:46.498Z,79.96
2024-03-08T16:52:32.983Z,79.74
2024-03-08T16:55:21.860Z,79.81
2024-03-08T16:58:09.568Z,79.86
2024-03-08T17:00:55.111Z,79.89
2024-03-08T17:03:47.982Z,79.95
2024-03-08T17:06:41.820Z,79.66
2024-03-08T17:09:28.510Z,79.94
2024-03-08T17:12:19.705Z,79.95
2024-03-08T17:15:06.917Z,79.94
2024-03-08T17:17:55.185Z,79.88
2024-03-08T17:20:42.159Z,80.10
2024-03-08T17:23:27.998Z,80.08
2024-03-08T17:26:13.830Z,79.95
2024-03-08T17:28:59.566Z,79.89
2024-03-08T17:31:45.982Z,79.82
2024-03-08T17:34:33.279Z,79.88
2024-03-08T17:37:20.389Z,79.96
2024-03-08T17:40:09.904Z,80.06
2024-03-08T17:42:58.153Z,79.96
2024-03-08T17:45:46.893Z,79.76
2024-03-08T17:48:33.532Z,79.88
2024-03-08T17:51:18.672Z,79.96
2024-03-08T17:54:03.891Z,79.70
2024-03-08T17:56:49.246Z,79.78
2024-03-08T17:59:35.202Z,79.37
2024-03-08T18:02:21.038Z,79.45
2024-03-08T18:05:08.456Z,79.44
2024-03-08T18:08:03.586Z,79.32
2024-03-08T18:10:52.162Z,79.67
2024-03-08T18:13:37.947Z,80.12
2024-03-08T18:16:23.423Z,80.28
2024-03-08T18:19:08.847Z,80.44
2024-03-08T18:21:54.015Z,81.09
2024-03-08T18:24:39.462Z,81.78
2024-03-08T18:27:29.097Z,81.25
2024-03-08T18:30:17.954Z,81.84
2024-03-08T18:33:03.989Z,82.25
2024-03-08T18:35:49.389Z,81.65
2024-03-08T18:38:34.703Z,81.37
2024-03-08T18:41:20.202Z,80.87
2024-03-08T18:44:05.552Z,80.94
2024-03-08T18:46:57.679Z,80.78
2024-03-08T18:49:43.482Z,80.74
2024-03-08T18:52:31.055Z,80.43
2024-03-08T18:55:24.957Z,80.50
2024-03-08T18:58:10.877Z,80.80
2024-03-08T19:00:56.001Z,80.92
2024-03-08T19:03:42.643Z,80.74
2024-03-08T19:06:32.090Z,80.59
2024-03-08T19:09:18.111Z,80.51
2024-03-08T19:12:10.119Z,80.74
2024-03-08T19:14:55.677Z,80.74
2024-03-08T19:17:40.893Z,80.94
2024-03-08T19:20:30.120Z,81.12
2024-03-08T19:23:15.543Z,81.14
2024-03-08T19:26:00.895Z,80.92
2024-03-08T19:28:47.880Z,81.00
2024-03-08T19:31:33.412Z,81.10
2024-03-08T19:34:20.015Z,81.11
2024-03-08T19:37:07.498Z,81.30
2024-03-08T19:39:53.326Z,81.45
2024-03-08T19:42:38.652Z,81.24
2024-03-08T19:45:27.368Z,81.70
2024-03-08T19:48:22.200Z,81.67
2024-03-08T19:51:07.927Z,81.84
2024-03-08T19:53:55.423Z,81.39
2024-03-08T19:56:40.438Z,82.10
2024-03-08T19:59:25.738Z,82.08
2024-03-08T20:02:10.887Z,82.06
2024-03-08T20:04:57.251Z,82.11
2024-03-08T20:07:45.626Z,82.08
2024-03-08T20:10:31.618Z,82.23
2024-03-08T20:13:18.386Z,82.11
2024-03-08T20:16:05.042Z,82.46
2024-03-08T20:18:52.689Z,82.43
2024-03-08T20:21:39.448Z,82.05
2024-03-08T20:24:24.968Z,81.85
2024-03-08T20:27:10.237Z,82.12
2024-03-08T20:29:55.433Z,81.93
2024-03-08T20:32:43.981Z,81.75
2024-03-08T20:35:32.831Z,81.94
2024-03-08T20:38:21.878Z,81.67
2024-03-08T20:41:12.741Z,81.56
2024-03-08T20:43:58.585Z,81.80
2024-03-08T20:46:43.821Z,81.70
2024-03-08T20:49:29.149Z,82.47
2024-03-08T20:52:14.280Z,83.09
2024-03-08T20:54:59.821Z,83.59
2024-03-08T20:57:50.970Z,83.46
2024-03-08T21:00:42.456Z,83.68
2024-03-08T21:03:29.786Z,83.21
2024-03-08T21:06:19.164Z,83.04
2024-03-08T21:09:07.617Z,82.88
2024-03-08T21:11:54.671Z,82.25
2024-03-08T21:14:39.803Z,82.25
2024-03-08T21:17:26.181Z,82.37
2024-03-08T21:20:12.527Z,82.07
2024-03-08T21:23:00.863Z,82.37
2024-03-08T21:25:47.129Z,82.41
2024-03-08T21:28:32.984Z,82.54
2024-03-08T21:31:18.449Z,82.55
2024-03-08T21:34:05.827Z,82.57
2024-03-08T21:36:51.175Z,82.27
2024-03-08T21:39:36.556Z,82.35
2024-03-08T21:42:21.989Z,83.10
2024-03-08T21:45:07.940Z,83.27
2024-03-08T21:47:54.674Z,83.23
2024-03-08T21:50:40.060Z,83.05
2024-03-08T21:53:31.116Z,83.01
2024-03-08T21:56:20.697Z,82.83
2024-03-08T21:59:06.605Z,83.24
2024-03-08T22:01:54.096Z,83.91
2024-03-08T22:04:39.982Z,84.06
2024-03-08T22:07:25.623Z,84.06
2024-03-08T22:10:11.102Z,84.36
2024-03-08T22:12:57.264Z,84.25
2024-03-08T22:15:46.175Z,83.90
2024-03-08T22:18:33.634Z,83.68
2024-03-08T22:21:18.870Z,83.65
2024-03-08T22:24:04.497Z,84.09
2024-03-08T22:26:49.731Z,83.83
2024-03-08T22:29:35.046Z,84.13
2024-03-08T22:32:20.569Z,84.19
2024-03-08T22:35:06.545Z,84.43
2024-03-08T22:37:55.799Z,84.44
2024-03-08T22:40:41.546Z,85.43
2024-03-08T22:43:27.547Z,86.46
2024-03-08T22:46:12.837Z,86.03
2024-03-08T22:48:58.566Z,85.71
2024-03-08T22:51:43.921Z,85.51
2024-03-08T22:54:29.202Z,84.99
2024-03-08T22:57:19.530Z,85.18
2024-03-08T23:00:24.455Z,85.25
2024-03-08T23:03:11.273Z,85.24
2024-03-08T23:05:59.142Z,85.43
2024-03-08T23:08:46.589Z,85.93
2024-03-08T23:11:31.903Z,86.33
2024-03-08T23:14:17.263Z,86.05
2024-03-08T23:17:02.842Z,86.11
2024-03-08T23:19:48.188Z,86.92
2024-03-08T23:22:33.228Z,87.06
2024-03-08T23:25:20.447Z,87.62
2024-03-08T23:28:08.354Z,88.49
2024-03-08T23:30:53.670Z,88.48
2024-03-08T23:33:39.172Z,88.63
2024-03-08T23:36:24.698Z,88.43
2024-03-08T23:39:13.122Z,89.15
2024-03-08T23:41:58.779Z,89.35
2024-03-08T23:44:44.171Z,88.93
2024-03-08T23:47:29.722Z,88.27
2024-03-08T23:50:17.024Z,88.53
2024-03-08T23:53:03.694Z,89.10
2024-03-08T23:55:50.536Z,89.96
2024-03-08T23:58:35.848Z,89.48
